createdAt,value
2023-04-03T00:00:51.573Z,99592.94
2023-04-03T00:03:19.574Z,99590.41
2023-04-03T00:05:47.076Z,99603.94
2023-04-03T00:08:13.706Z,99596.84
2023-04-03T00:10:40.449Z,99597.13
2023-04-03T00:13:08.219Z,99607.47
2023-04-03T00:15:36.592Z,99594.41
2023-04-03T00:18:04.069Z,99602.22
2023-04-03T00:20:31.017Z,99602.25
2023-04-03T00:22:57.811Z,99600.06
2023-04-03T00:25:24.777Z,99602.72
2023-04-03T00:27:52.532Z,99602.25
2023-04-03T00:30:21.864Z,99598.56
2023-04-03T00:32:49.892Z,99601.69
2023-04-03T00:35:19.300Z,99601.81
2023-04-03T00:37:46.771Z,99605.78
2023-04-03T00:40:15.395Z,99609.25
2023-04-03T00:42:43.404Z,99604.50
2023-04-03T00:45:19.206Z,99611.63
2023-04-03T00:47:46.112Z,99610.59
2023-04-03T00:50:12.772Z,99610.19
2023-04-03T00:52:40.279Z,99600.03
2023-04-03T00:55:09.749Z,99606.75
2023-04-03T00:57:36.596Z,99603.03
2023-04-03T01:00:10.279Z,99605.78
2023-04-03T01:02:37.728Z,99599.53
2023-04-03T01:05:05.563Z,99595.41
2023-04-03T01:07:34.569Z,99604.50
2023-04-03T01:10:04.520Z,99602.75
2023-04-03T01:12:34.519Z,99597.47
2023-04-03T01:15:05.933Z,99593.97
2023-04-03T01:17:39.879Z,99609.09
2023-04-03T01:20:15.765Z,99604.72
2023-04-03T01:22:58.355Z,99611.44
2023-04-03T01:25:25.493Z,99606.28
2023-04-03T01:27:52.017Z,99609.66
2023-04-03T01:30:22.700Z,99611.31
2023-04-03T01:32:49.698Z,99613.50
2023-04-03T01:35:16.438Z,99615.19
2023-04-03T01:37:43.078Z,99611.75
2023-04-03T01:40:10.356Z,99615.94
2023-04-03T01:42:37.012Z,99611.63
2023-04-03T01:45:04.286Z,99608.03
2023-04-03T01:47:31.283Z,99618.78
2023-04-03T01:49:57.979Z,99624.75
2023-04-03T01:52:24.648Z,99626.31
2023-04-03T01:54:51.696Z,99621.44
2023-04-03T01:57:18.313Z,99620.00
2023-04-03T01:59:45.044Z,99624.25
2023-04-03T02:02:13.562Z,99621.09
2023-04-03T02:04:40.299Z,99629.03
2023-04-03T02:07:07.023Z,99625.63
2023-04-03T02:09:33.608Z,99628.25
2023-04-03T02:12:00.167Z,99628.41
2023-04-03T02:14:28.452Z,99638.63
2023-04-03T02:16:55.213Z,99633.78
2023-04-03T02:19:21.897Z,99634.66
2023-04-03T02:21:48.424Z,99636.09
2023-04-03T02:24:15.108Z,99640.38
2023-04-03T02:26:41.782Z,99634.59
2023-04-03T02:29:08.416Z,99638.84
2023-04-03T02:31:35.223Z,99638.03
2023-04-03T02:34:01.970Z,99642.38
2023-04-03T02:36:28.945Z,99640.03
2023-04-03T02:38:56.831Z,99643.94
2023-04-03T02:41:23.570Z,99639.38
2023-04-03T02:43:50.200Z,99643.84
2023-04-03T02:46:16.984Z,99653.94
2023-04-03T02:48:43.703Z,99648.34
2023-04-03T02:51:10.586Z,99646.53
2023-04-03T02:53:37.501Z,99642.03
2023-04-03T02:56:04.319Z,99641.78
2023-04-03T02:58:31.424Z,99640.19
2023-04-03T03:00:58.017Z,99646.81
2023-04-03T03:03:24.617Z,99647.88
2023-04-03T03:05:51.172Z,99645.50
2023-04-03T03:08:21.228Z,99645.91
2023-04-03T03:10:47.884Z,99649.63
2023-04-03T03:13:14.443Z,99645.47
2023-04-03T03:15:41.285Z,99648.06
2023-04-03T03:18:08.005Z,99645.47
2023-04-03T03:20:34.986Z,99647.94
2023-04-03T03:23:01.907Z,99649.25
2023-04-03T03:25:28.600Z,99655.63
2023-04-03T03:27:55.397Z,99646.56
2023-04-03T03:30:22.153Z,99662.59
2023-04-03T03:32:48.913Z,99656.09
2023-04-03T03:35:15.975Z,99657.75
2023-04-03T03:37:42.627Z,99656.13
2023-04-03T03:40:09.907Z,99654.94
2023-04-03T03:42:36.493Z,99661.56
2023-04-03T03:45:03.370Z,99662.47
2023-04-03T03:47:29.978Z,99660.34
2023-04-03T03:49:56.736Z,99669.72
2023-04-03T03:52:23.461Z,99671.41
2023-04-03T03:54:50.079Z,99671.75
2023-04-03T03:57:16.777Z,99666.69
2023-04-03T03:59:45.075Z,99670.22
2023-04-03T04:02:12.568Z,99668.91
2023-04-03T04:04:39.274Z,99675.63
2023-04-03T04:07:06.090Z,99673.19
2023-04-03T04:09:32.754Z,99679.13
2023-04-03T04:11:59.410Z,99674.00
2023-04-03T04:14:26.166Z,99681.31
2023-04-03T04:16:52.803Z,99682.31
2023-04-03T04:19:19.409Z,99684.00
2023-04-03T04:21:46.592Z,99675.38
2023-04-03T04:24:13.215Z,99682.16
2023-04-03T04:26:39.887Z,99685.78
2023-04-03T04:29:06.533Z,99682.22
2023-04-03T04:31:33.251Z,99685.84
2023-04-03T04:34:00.053Z,99690.44
2023-04-03T04:36:26.885Z,99688.69
2023-04-03T04:38:56.700Z,99699.13
2023-04-03T04:41:25.940Z,99699.03
2023-04-03T04:43:53.557Z,99700.34
2023-04-03T04:46:20.495Z,99706.34
2023-04-03T04:48:47.313Z,99712.19
2023-04-03T04:51:13.854Z,99713.59
2023-04-03T04:53:40.695Z,99710.03
2023-04-03T04:56:07.909Z,99707.69
2023-04-03T04:58:34.954Z,99720.88
2023-04-03T05:01:07.221Z,99721.84
2023-04-03T05:03:34.148Z,99722.13
2023-04-03T05:06:01.062Z,99718.38
2023-04-03T05:08:28.389Z,99733.41
2023-04-03T05:10:56.255Z,99730.38
2023-04-03T05:13:23.630Z,99734.03
2023-04-03T05:15:50.504Z,99738.38
2023-04-03T05:18:17.239Z,99736.22
2023-04-03T05:20:44.514Z,99739.63
2023-04-03T05:23:12.425Z,99740.94
2023-04-03T05:25:39.970Z,99731.38
2023-04-03T05:28:07.849Z,99741.78
2023-04-03T05:30:34.572Z,99739.47
2023-04-03T05:33:01.328Z,99740.16
2023-04-03T05:35:28.074Z,99731.06
2023-04-03T05:37:54.985Z,99745.06
2023-04-03T05:40:21.987Z,99742.22
2023-04-03T05:42:48.655Z,99750.78
2023-04-03T05:45:15.275Z,99741.19
2023-04-03T05:47:42.016Z,99755.28
2023-04-03T05:50:09.203Z,99758.16
2023-04-03T05:52:43.864Z,99753.50
2023-04-03T05:55:10.760Z,99755.41
2023-04-03T05:57:37.498Z,99756.56
2023-04-03T06:00:08.708Z,99763.25
2023-04-03T06:02:35.353Z,99763.50
2023-04-03T06:05:02.200Z,99770.91
2023-04-03T06:07:29.574Z,99771.50
2023-04-03T06:09:57.905Z,99783.25
2023-04-03T06:12:25.286Z,99776.97
2023-04-03T06:14:52.283Z,99778.66
2023-04-03T06:17:19.701Z,99784.19
2023-04-03T06:19:46.968Z,99785.69
2023-04-03T06:22:14.053Z,99782.19
2023-04-03T06:24:41.426Z,99780.78
2023-04-03T06:27:08.430Z,99783.59
2023-04-03T06:29:35.031Z,99782.19
2023-04-03T06:32:01.765Z,99785.94
2023-04-03T06:34:28.666Z,99785.00
2023-04-03T06:36:55.254Z,99789.34
2023-04-03T06:39:23.860Z,99799.22
2023-04-03T06:41:51.842Z,99792.03
2023-04-03T06:44:18.589Z,99796.78
2023-04-03T06:46:47.629Z,99784.81
2023-04-03T06:49:15.259Z,99784.97
2023-04-03T06:51:41.906Z,99788.09
2023-04-03T06:54:09.526Z,99791.63
2023-04-03T06:56:36.326Z,99790.09
2023-04-03T06:59:03.409Z,99799.22
2023-04-03T07:01:31.102Z,99798.75
2023-04-03T07:03:58.593Z,99798.44
2023-04-03T07:06:28.245Z,99812.13
2023-04-03T07:08:55.681Z,99799.81
2023-04-03T07:11:22.514Z,99806.41
2023-04-03T07:13:49.586Z,99796.34
2023-04-03T07:16:16.716Z,99809.13
2023-04-03T07:18:43.296Z,99817.28
2023-04-03T07:21:10.006Z,99820.75
2023-04-03T07:23:36.829Z,99816.44
2023-04-03T07:26:03.981Z,99818.31
2023-04-03T07:28:30.928Z,99819.63
2023-04-03T07:31:04.742Z,99819.34
2023-04-03T07:33:32.364Z,99824.28
2023-04-03T07:35:59.594Z,99841.28
2023-04-03T07:38:27.082Z,99846.41
2023-04-03T07:40:53.926Z,99843.34
2023-04-03T07:43:21.937Z,99844.06
2023-04-03T07:45:51.988Z,99845.78
2023-04-03T07:48:20.364Z,99851.34
2023-04-03T07:50:47.401Z,99854.63
2023-04-03T07:53:15.293Z,99861.31
2023-04-03T07:55:45.023Z,99863.28
2023-04-03T07:58:13.125Z,99862.13
2023-04-03T08:00:40.472Z,99862.00
2023-04-03T08:03:09.594Z,99856.84
2023-04-03T08:05:42.411Z,99864.66
2023-04-03T08:08:11.852Z,99858.66
2023-04-03T08:10:39.030Z,99868.63
2023-04-03T08:13:06.773Z,99871.84
2023-04-03T08:15:33.723Z,99871.16
2023-04-03T08:18:02.336Z,99863.03
2023-04-03T08:20:29.434Z,99876.31
2023-04-03T08:22:56.356Z,99869.84
2023-04-03T08:25:23.056Z,99860.84
2023-04-03T08:27:49.744Z,99856.38
2023-04-03T08:30:16.616Z,99859.63
2023-04-03T08:32:44.251Z,99871.16
2023-04-03T08:35:11.797Z,99859.00
2023-04-03T08:37:40.453Z,99864.72
2023-04-03T08:40:12.467Z,99866.22
2023-04-03T08:43:00.837Z,99863.28
2023-04-03T08:45:42.951Z,99866.03
2023-04-03T08:48:24.933Z,99862.06
2023-04-03T08:50:56.194Z,99862.06
2023-04-03T08:53:28.356Z,99860.50
2023-04-03T08:55:56.614Z,99853.13
2023-04-03T08:58:26.951Z,99852.06
2023-04-03T09:01:00.120Z,99855.44
2023-04-03T09:03:30.269Z,99856.63
2023-04-03T09:06:16.237Z,99856.66
2023-04-03T09:09:08.047Z,99857.94
2023-04-03T09:11:43.665Z,99845.81
2023-04-03T09:14:32.899Z,99853.03
2023-04-03T09:17:04.468Z,99854.91
2023-04-03T09:19:34.008Z,99863.06
2023-04-03T09:22:17.598Z,99860.75
2023-04-03T09:24:48.333Z,99860.97
2023-04-03T09:27:14.848Z,99868.22
2023-04-03T09:29:44.557Z,99867.44
2023-04-03T09:32:33.934Z,99854.19
2023-04-03T09:35:18.979Z,99856.69
2023-04-03T09:37:50.208Z,99858.09
2023-04-03T09:40:26.048Z,99843.38
2023-04-03T09:43:00.796Z,99847.13
2023-04-03T09:45:37.380Z,99847.53
2023-04-03T09:48:17.226Z,99847.91
2023-04-03T09:51:00.622Z,99840.25
2023-04-03T09:53:37.750Z,99845.25
2023-04-03T09:56:30.543Z,99837.94
2023-04-03T09:59:00.127Z,99854.63
2023-04-03T10:01:31.702Z,99845.34
2023-04-03T10:04:10.619Z,99850.50
2023-04-03T10:06:47.661Z,99853.81
2023-04-03T10:09:34.377Z,99857.72
2023-04-03T10:12:15.771Z,99845.50
2023-04-03T10:14:57.873Z,99851.00
2023-04-03T10:17:47.846Z,99850.94
2023-04-03T10:20:35.150Z,99845.06
2023-04-03T10:23:02.585Z,99839.22
2023-04-03T10:25:48.884Z,99848.59
2023-04-03T10:28:26.432Z,99832.84
2023-04-03T10:31:18.521Z,99842.00
2023-04-03T10:33:58.451Z,99840.84
2023-04-03T10:36:38.330Z,99839.94
2023-04-03T10:39:13.541Z,99830.41
2023-04-03T10:42:09.003Z,99824.66
2023-04-03T10:45:07.111Z,99816.50
2023-04-03T10:48:07.417Z,99803.56
2023-04-03T10:50:56.885Z,99813.22
2023-04-03T10:53:40.800Z,99817.25
2023-04-03T10:56:29.675Z,99807.47
2023-04-03T10:59:03.202Z,99820.00
2023-04-03T11:01:36.608Z,99812.41
2023-04-03T11:04:07.236Z,99817.78
2023-04-03T11:06:39.294Z,99813.56
2023-04-03T11:09:32.369Z,99805.31
2023-04-03T11:12:05.973Z,99808.47
2023-04-03T11:14:36.964Z,99799.25
2023-04-03T11:17:56.629Z,99799.94
2023-04-03T11:20:29.659Z,99802.28
2023-04-03T11:23:06.764Z,99794.06
2023-04-03T11:25:38.429Z,99791.53
2023-04-03T11:28:08.074Z,99780.97
2023-04-03T11:30:34.951Z,99795.63
2023-04-03T11:33:26.112Z,99787.16
2023-04-03T11:35:57.904Z,99790.00
2023-04-03T11:38:37.670Z,99777.97
2023-04-03T11:41:06.979Z,99772.09
2023-04-03T11:43:35.090Z,99771.22
2023-04-03T11:46:08.740Z,99785.34
2023-04-03T11:48:35.311Z,99776.84
2023-04-03T11:51:13.963Z,99777.38
2023-04-03T11:53:42.165Z,99785.56
2023-04-03T11:56:27.023Z,99777.41
2023-04-03T11:59:05.995Z,99776.41
2023-04-03T12:01:54.067Z,99778.97
2023-04-03T12:04:23.181Z,99774.03
2023-04-03T12:06:50.060Z,99769.34
2023-04-03T12:09:35.335Z,99774.63
2023-04-03T12:12:23.522Z,99754.63
2023-04-03T12:14:52.257Z,99747.38
2023-04-03T12:17:25.833Z,99746.44
2023-04-03T12:19:52.980Z,99748.06
2023-04-03T12:22:22.019Z,99746.25
2023-04-03T12:24:53.615Z,99748.06
2023-04-03T12:27:30.024Z,99744.25
2023-04-03T12:30:02.888Z,99743.38
2023-04-03T12:32:41.901Z,99742.47
2023-04-03T12:35:46.140Z,99743.69
2023-04-03T12:38:21.711Z,99738.13
2023-04-03T12:41:12.881Z,99736.34
2023-04-03T12:44:30.953Z,99726.44
2023-04-03T12:47:03.158Z,99732.63
2023-04-03T12:49:29.739Z,99719.00
2023-04-03T12:51:57.033Z,99721.38
2023-04-03T12:54:33.764Z,99717.44
2023-04-03T12:57:25.690Z,99720.53
2023-04-03T12:59:52.839Z,99724.78
2023-04-03T13:02:28.781Z,99717.56
2023-04-03T13:04:59.048Z,99716.16
2023-04-03T13:07:34.473Z,99705.72
2023-04-03T13:10:08.115Z,99704.75
2023-04-03T13:12:49.587Z,99711.44
2023-04-03T13:15:47.456Z,99709.69
2023-04-03T13:18:34.819Z,99713.75
2023-04-03T13:21:09.022Z,99711.28
2023-04-03T13:23:39.403Z,99709.31
2023-04-03T13:26:08.162Z,99698.44
2023-04-03T13:28:36.471Z,99714.69
2023-04-03T13:31:08.306Z,99717.78
2023-04-03T13:33:40.049Z,99713.56
2023-04-03T13:36:12.233Z,99723.34
2023-04-03T13:38:39.170Z,99716.94
2023-04-03T13:41:25.102Z,99712.91
2023-04-03T13:43:53.767Z,99714.44
2023-04-03T13:46:28.280Z,99706.13
2023-04-03T13:48:57.673Z,99699.56
2023-04-03T13:51:30.472Z,99703.47
2023-04-03T13:54:00.934Z,99708.25
2023-04-03T13:56:39.295Z,99706.44
2023-04-03T13:59:25.760Z,99699.78
2023-04-03T14:02:12.150Z,99702.22
2023-04-03T14:04:44.967Z,99694.91
2023-04-03T14:07:13.709Z,99696.22
2023-04-03T14:09:40.871Z,99685.53
2023-04-03T14:12:24.285Z,99687.56
2023-04-03T14:14:57.628Z,99693.44
2023-04-03T14:17:27.765Z,99701.69
2023-04-03T14:19:56.427Z,99691.25
2023-04-03T14:22:24.819Z,99689.31
2023-04-03T14:24:53.086Z,99689.31
2023-04-03T14:27:29.564Z,99693.69
2023-04-03T14:29:58.841Z,99698.81
2023-04-03T14:32:26.385Z,99684.78
2023-04-03T14:34:54.315Z,99691.84
2023-04-03T14:37:24.660Z,99689.50
2023-04-03T14:39:54.524Z,99684.25
2023-04-03T14:42:28.372Z,99687.63
2023-04-03T14:44:55.068Z,99683.97
2023-04-03T14:47:31.226Z,99690.63
2023-04-03T14:50:01.250Z,99686.00
2023-04-03T14:52:34.773Z,99691.50
2023-04-03T14:55:03.004Z,99689.75
2023-04-03T14:57:31.739Z,99688.97
2023-04-03T14:59:59.076Z,99679.97
2023-04-03T15:02:37.188Z,99685.19
2023-04-03T15:05:07.665Z,99678.81
2023-04-03T15:07:43.052Z,99681.53
2023-04-03T15:10:30.667Z,99681.41
2023-04-03T15:12:58.372Z,99677.81
2023-04-03T15:15:29.044Z,99677.88
2023-04-03T15:17:59.053Z,99677.78
2023-04-03T15:20:27.580Z,99680.53
2023-04-03T15:22:57.210Z,99674.44
2023-04-03T15:25:24.612Z,99671.38
2023-04-03T15:27:51.148Z,99676.03
2023-04-03T15:30:20.318Z,99678.91
2023-04-03T15:32:47.622Z,99676.50
2023-04-03T15:35:14.427Z,99683.41
2023-04-03T15:37:41.375Z,99675.47
2023-04-03T15:40:08.793Z,99678.78
2023-04-03T15:42:35.488Z,99681.44
2023-04-03T15:45:02.222Z,99673.38
2023-04-03T15:47:29.386Z,99675.91
2023-04-03T15:49:56.864Z,99676.75
2023-04-03T15:52:23.554Z,99671.38
2023-04-03T15:54:50.537Z,99676.91
2023-04-03T15:57:17.281Z,99678.34
2023-04-03T15:59:44.016Z,99675.84
2023-04-03T16:02:13.983Z,99672.94
2023-04-03T16:04:41.571Z,99668.66
2023-04-03T16:07:08.281Z,99665.97
2023-04-03T16:09:36.111Z,99676.13
2023-04-03T16:12:03.392Z,99677.44
2023-04-03T16:14:31.506Z,99663.47
2023-04-03T16:17:00.130Z,99664.97
2023-04-03T16:19:27.143Z,99684.25
2023-04-03T16:21:55.524Z,99674.06
2023-04-03T16:24:22.299Z,99666.25
2023-04-03T16:26:49.187Z,99669.69
2023-04-03T16:29:15.962Z,99672.56
2023-04-03T16:31:42.625Z,99667.75
2023-04-03T16:34:09.341Z,99669.34
2023-04-03T16:36:36.231Z,99673.88
2023-04-03T16:39:03.097Z,99671.41
2023-04-03T16:41:29.764Z,99678.66
2023-04-03T16:43:56.782Z,99680.41
2023-04-03T16:46:23.604Z,99688.16
2023-04-03T16:48:50.414Z,99672.63
2023-04-03T16:51:17.102Z,99680.63
2023-04-03T16:53:44.262Z,99683.03
2023-04-03T16:56:11.073Z,99682.81
2023-04-03T16:58:37.720Z,99685.91
2023-04-03T17:01:19.642Z,99680.00
2023-04-03T17:03:46.781Z,99691.78
2023-04-03T17:06:18.161Z,99684.31
2023-04-03T17:08:49.949Z,99677.09
2023-04-03T17:11:17.067Z,99684.00
2023-04-03T17:13:43.870Z,99683.94
2023-04-03T17:16:14.403Z,99691.56
2023-04-03T17:18:41.688Z,99689.19
2023-04-03T17:21:09.061Z,99681.44
2023-04-03T17:23:38.821Z,99689.50
2023-04-03T17:26:05.787Z,99689.50
2023-04-03T17:28:32.619Z,99692.00
2023-04-03T17:31:01.537Z,99692.69
2023-04-03T17:33:31.303Z,99699.06
2023-04-03T17:36:01.646Z,99685.97
2023-04-03T17:38:29.678Z,99697.06
2023-04-03T17:41:01.357Z,99692.78
2023-04-03T17:43:28.023Z,99697.88
2023-04-03T17:46:03.639Z,99700.47
2023-04-03T17:48:32.096Z,99705.66
2023-04-03T17:50:58.805Z,99703.91
2023-04-03T17:53:27.732Z,99700.53
2023-04-03T17:55:54.445Z,99703.72
2023-04-03T17:58:21.047Z,99707.09
2023-04-03T18:00:47.929Z,99697.53
2023-04-03T18:03:14.713Z,99696.63
2023-04-03T18:05:41.568Z,99702.91
2023-04-03T18:08:08.440Z,99698.78
2023-04-03T18:10:37.321Z,99703.09
2023-04-03T18:13:07.482Z,99709.09
2023-04-03T18:15:34.343Z,99708.25
2023-04-03T18:18:01.258Z,99706.41
2023-04-03T18:20:27.880Z,99709.69
2023-04-03T18:22:54.699Z,99707.03
2023-04-03T18:25:21.408Z,99707.28
2023-04-03T18:27:48.739Z,99709.84
2023-04-03T18:30:18.043Z,99713.91
2023-04-03T18:32:45.056Z,99713.91
2023-04-03T18:35:11.901Z,99708.78
2023-04-03T18:37:38.556Z,99711.00
2023-04-03T18:40:06.269Z,99701.59
2023-04-03T18:42:32.969Z,99716.50
2023-04-03T18:45:02.994Z,99710.28
2023-04-03T18:47:29.974Z,99713.97
2023-04-03T18:49:56.804Z,99703.22
2023-04-03T18:52:25.404Z,99714.44
2023-04-03T18:54:52.124Z,99713.66
2023-04-03T18:57:18.694Z,99715.41
2023-04-03T18:59:45.338Z,99717.06
2023-04-03T19:02:13.870Z,99718.50
2023-04-03T19:04:40.974Z,99725.47
2023-04-03T19:07:09.018Z,99708.13
2023-04-03T19:09:36.078Z,99714.75
2023-04-03T19:12:02.777Z,99726.97
2023-04-03T19:14:29.478Z,99723.63
2023-04-03T19:16:56.378Z,99723.69
2023-04-03T19:19:23.013Z,99723.78
2023-04-03T19:21:50.543Z,99720.38
2023-04-03T19:24:17.217Z,99720.09
2023-04-03T19:26:43.775Z,99728.72
2023-04-03T19:29:10.826Z,99721.94
2023-04-03T19:31:38.143Z,99723.63
2023-04-03T19:34:05.912Z,99721.94
2023-04-03T19:36:33.300Z,99723.38
2023-04-03T19:38:59.928Z,99722.66
2023-04-03T19:41:30.079Z,99727.06
2023-04-03T19:43:57.622Z,99732.25
2023-04-03T19:46:29.171Z,99719.19
2023-04-03T19:48:56.567Z,99720.19
2023-04-03T19:51:23.415Z,99723.63
2023-04-03T19:53:50.159Z,99725.13
2023-04-03T19:56:17.202Z,99723.63
2023-04-03T19:58:44.497Z,99730.22
2023-04-03T20:01:11.604Z,99721.19
2023-04-03T20:03:38.338Z,99725.63
2023-04-03T20:06:05.195Z,99725.59
2023-04-03T20:08:32.398Z,99722.84
2023-04-03T20:10:59.007Z,99723.72
2023-04-03T20:13:25.625Z,99718.59
2023-04-03T20:15:53.490Z,99722.00
2023-04-03T20:18:21.192Z,99717.63
2023-04-03T20:20:55.325Z,99721.19
2023-04-03T20:23:22.521Z,99729.16
2023-04-03T20:26:01.446Z,99721.34
2023-04-03T20:28:36.450Z,99720.19
2023-04-03T20:31:03.982Z,99713.78
2023-04-03T20:33:30.673Z,99712.66
2023-04-03T20:35:58.487Z,99711.81
2023-04-03T20:38:25.578Z,99713.56
2023-04-03T20:40:52.647Z,99717.81
2023-04-03T20:43:19.694Z,99714.41
2023-04-03T20:45:47.566Z,99708.31
2023-04-03T20:48:15.331Z,99704.84
2023-04-03T20:50:42.571Z,99697.00
2023-04-03T20:53:09.629Z,99701.00
2023-04-03T20:55:36.563Z,99705.44
2023-04-03T20:58:03.820Z,99698.66
2023-04-03T21:00:32.420Z,99697.69
2023-04-03T21:03:01.538Z,99693.38
2023-04-03T21:05:30.388Z,99691.81
2023-04-03T21:08:36.146Z,99696.81
2023-04-03T21:11:40.473Z,99689.69
2023-04-03T21:14:46.111Z,99687.19
2023-04-03T21:17:12.763Z,99691.88
2023-04-03T21:19:46.220Z,99691.78
2023-04-03T21:22:14.034Z,99689.38
2023-04-03T21:24:41.126Z,99696.38
2023-04-03T21:27:08.434Z,99684.31
2023-04-03T21:29:35.222Z,99686.09
2023-04-03T21:32:02.290Z,99689.50
2023-04-03T21:34:30.915Z,99687.66
2023-04-03T21:37:02.609Z,99682.69
2023-04-03T21:39:29.269Z,99688.75
2023-04-03T21:41:56.129Z,99688.41
2023-04-03T21:44:23.248Z,99685.94
2023-04-03T21:46:54.762Z,99690.25
2023-04-03T21:49:22.675Z,99686.63
2023-04-03T21:51:51.820Z,99681.50
2023-04-03T21:54:19.397Z,99683.00
2023-04-03T21:56:48.195Z,99686.56
2023-04-03T21:59:15.448Z,99683.72
2023-04-03T22:01:42.180Z,99690.28
2023-04-03T22:04:08.893Z,99680.13
2023-04-03T22:06:37.488Z,99683.28
2023-04-03T22:09:04.244Z,99675.81
2023-04-03T22:11:31.326Z,99677.91
2023-04-03T22:13:58.359Z,99667.72
2023-04-03T22:16:25.084Z,99680.13
2023-04-03T22:18:53.029Z,99679.97
2023-04-03T22:21:20.663Z,99676.63
2023-04-03T22:23:47.275Z,99679.09
2023-04-03T22:26:13.938Z,99672.91
2023-04-03T22:28:46.380Z,99665.84
2023-04-03T22:31:14.529Z,99679.75
2023-04-03T22:33:42.561Z,99671.22
2023-04-03T22:36:11.001Z,99668.50
2023-04-03T22:38:39.100Z,99668.69
2023-04-03T22:41:08.102Z,99669.28
2023-04-03T22:43:36.632Z,99672.56
2023-04-03T22:46:05.365Z,99666.88
2023-04-03T22:48:32.097Z,99659.84
2023-04-03T22:51:00.189Z,99653.84
2023-04-03T22:53:27.879Z,99656.22
2023-04-03T22:55:58.757Z,99653.53
2023-04-03T22:58:26.936Z,99660.66
2023-04-03T23:01:07.697Z,99647.56
2023-04-03T23:03:38.648Z,99649.22
2023-04-03T23:06:06.275Z,99655.59
2023-04-03T23:08:34.765Z,99647.63
2023-04-03T23:11:01.843Z,99652.34
2023-04-03T23:13:28.699Z,99647.72
2023-04-03T23:16:00.252Z,99656.25
2023-04-03T23:18:31.657Z,99654.38
2023-04-03T23:21:04.381Z,99649.13
2023-04-03T23:23:32.324Z,99651.78
2023-04-03T23:26:00.906Z,99650.94
2023-04-03T23:28:29.090Z,99648.28
2023-04-03T23:31:04.214Z,99637.91
2023-04-03T23:33:32.270Z,99643.16
2023-04-03T23:36:00.207Z,99643.25
2023-04-03T23:38:27.062Z,99649.41
2023-04-03T23:40:53.804Z,99643.28
2023-04-03T23:43:20.792Z,99644.78
2023-04-03T23:45:47.443Z,99652.34
2023-04-03T23:48:14.413Z,99646.44
2023-04-03T23:50:42.338Z,99643.88
2023-04-03T23:53:09.057Z,99648.19
2023-04-03T23:55:35.931Z,99639.53
2023-04-03T23:58:02.924Z,99647.09
